createdAt,value
2023-08-15T00:00:17.546Z,76.53
2023-08-15T00:02:49.554Z,76.39
2023-08-15T00:05:21.733Z,76.50
2023-08-15T00:07:54.817Z,76.37
2023-08-15T00:10:26.815Z,76.38
2023-08-15T00:12:58.680Z,76.57
2023-08-15T00:15:31.656Z,76.69
2023-08-15T00:18:03.641Z,76.52
2023-08-15T00:20:35.365Z,76.44
2023-08-15T00:23:09.395Z,76.98
2023-08-15T00:25:41.296Z,76.97
2023-08-15T00:28:13.273Z,76.83
2023-08-15T00:30:45.177Z,77.10
2023-08-15T00:33:17.060Z,77.93
2023-08-15T00:35:48.998Z,77.01
2023-08-15T00:38:22.050Z,77.43
2023-08-15T00:40:54.067Z,77.84
2023-08-15T00:43:25.929Z,78.24
2023-08-15T00:45:58.033Z,77.69
2023-08-15T00:48:31.230Z,78.62
2023-08-15T00:51:05.641Z,78.89
2023-08-15T00:53:40.242Z,78.67
2023-08-15T00:56:14.786Z,78.62
2023-08-15T00:58:46.554Z,78.24
2023-08-15T01:01:23.219Z,78.67
2023-08-15T01:03:55.722Z,78.50
2023-08-15T01:06:27.487Z,78.27
2023-08-15T01:09:02.076Z,78.70
2023-08-15T01:11:41.782Z,79.44
2023-08-15T01:14:19.894Z,79.23
2023-08-15T01:16:54.429Z,78.88
2023-08-15T01:19:37.283Z,79.26
2023-08-15T01:22:17.107Z,79.05
2023-08-15T01:24:51.902Z,79.18
2023-08-15T01:27:23.800Z,79.21
2023-08-15T01:29:56.519Z,79.75
2023-08-15T01:32:39.381Z,79.65
2023-08-15T01:35:17.390Z,79.51
2023-08-15T01:37:55.920Z,79.48
2023-08-15T01:40:30.808Z,79.48
2023-08-15T01:43:05.136Z,79.73
2023-08-15T01:45:38.087Z,80.09
2023-08-15T01:48:12.304Z,80.16
2023-08-15T01:50:42.191Z,80.00
2023-08-15T01:53:14.168Z,80.29
2023-08-15T01:55:47.203Z,79.96
2023-08-15T01:58:19.200Z,80.27
2023-08-15T02:00:51.064Z,80.41
2023-08-15T02:03:23.039Z,81.04
2023-08-15T02:05:55.022Z,80.30
2023-08-15T02:08:26.924Z,81.58
2023-08-15T02:11:00.082Z,80.22
2023-08-15T02:13:34.552Z,80.81
2023-08-15T02:16:06.395Z,81.17
2023-08-15T02:18:41.412Z,80.88
2023-08-15T02:21:13.875Z,81.01
2023-08-15T02:23:45.747Z,81.56
2023-08-15T02:26:19.543Z,82.28
2023-08-15T02:28:51.210Z,82.44
2023-08-15T02:31:23.597Z,82.33
2023-08-15T02:33:57.310Z,81.71
2023-08-15T02:36:29.216Z,81.26
2023-08-15T02:39:03.743Z,82.35
2023-08-15T02:41:36.740Z,82.31
2023-08-15T02:44:09.381Z,82.58
2023-08-15T02:46:41.338Z,82.07
2023-08-15T02:49:14.017Z,81.86
2023-08-15T02:51:45.954Z,81.87
2023-08-15T02:54:17.913Z,82.51
2023-08-15T02:56:50.872Z,83.06
2023-08-15T02:59:22.904Z,82.21
2023-08-15T03:01:54.783Z,82.41
2023-08-15T03:04:26.758Z,83.04
2023-08-15T03:06:58.609Z,83.27
2023-08-15T03:09:30.484Z,82.78
2023-08-15T03:12:03.810Z,82.72
2023-08-15T03:14:35.971Z,82.57
2023-08-15T03:17:08.693Z,82.52
2023-08-15T03:19:40.395Z,83.31
2023-08-15T03:22:12.832Z,84.81
2023-08-15T03:24:44.772Z,84.19
2023-08-15T03:27:17.964Z,83.62
2023-08-15T03:29:49.865Z,83.43
2023-08-15T03:32:21.865Z,85.12
2023-08-15T03:34:53.587Z,85.82
2023-08-15T03:37:25.504Z,85.09
2023-08-15T03:39:57.408Z,83.30
2023-08-15T03:42:30.510Z,83.53
2023-08-15T03:45:02.351Z,84.51
2023-08-15T03:47:34.274Z,83.76
2023-08-15T03:50:06.347Z,83.79
2023-08-15T03:52:38.427Z,83.55
2023-08-15T03:55:11.133Z,83.79
2023-08-15T03:57:44.145Z,83.75
2023-08-15T04:00:19.642Z,84.04
2023-08-15T04:02:51.660Z,83.97
2023-08-15T04:05:25.497Z,83.58
2023-08-15T04:07:57.164Z,84.96
2023-08-15T04:10:29.104Z,84.42
2023-08-15T04:13:02.375Z,83.81
2023-08-15T04:15:34.399Z,84.14
2023-08-15T04:18:06.662Z,83.78
2023-08-15T04:20:39.806Z,84.46
2023-08-15T04:23:13.156Z,84.09
2023-08-15T04:25:45.157Z,83.41
2023-08-15T04:28:18.390Z,84.43
2023-08-15T04:30:50.255Z,84.51
2023-08-15T04:33:22.527Z,83.69
2023-08-15T04:35:54.306Z,84.19
2023-08-15T04:38:27.136Z,83.59
2023-08-15T04:40:59.433Z,84.51
2023-08-15T04:43:32.481Z,83.55
2023-08-15T04:46:05.916Z,84.24
2023-08-15T04:48:37.869Z,85.09
2023-08-15T04:51:09.556Z,86.27
2023-08-15T04:53:41.433Z,85.67
2023-08-15T04:56:14.087Z,85.53
2023-08-15T04:58:47.933Z,85.26
2023-08-15T05:01:19.879Z,85.73
2023-08-15T05:03:51.770Z,85.50
2023-08-15T05:06:23.704Z,85.95
2023-08-15T05:08:55.689Z,85.85
2023-08-15T05:11:28.821Z,86.64
2023-08-15T05:14:03.499Z,86.15
2023-08-15T05:16:35.172Z,86.68
2023-08-15T05:19:07.167Z,86.45
2023-08-15T05:21:39.161Z,86.72
2023-08-15T05:24:12.380Z,86.86
2023-08-15T05:26:44.259Z,87.70
2023-08-15T05:29:17.529Z,87.30
2023-08-15T05:31:49.376Z,88.47
2023-08-15T05:34:21.249Z,88.60
2023-08-15T05:36:53.123Z,88.52
2023-08-15T05:39:25.100Z,89.17
2023-08-15T05:41:56.936Z,89.20
2023-08-15T05:44:30.396Z,88.80
2023-08-15T05:47:02.380Z,88.89
2023-08-15T05:49:34.177Z,89.83
2023-08-15T05:52:06.073Z,88.57
2023-08-15T05:54:37.947Z,89.08
2023-08-15T05:57:09.753Z,89.73
2023-08-15T05:59:43.069Z,89.95
2023-08-15T06:02:15.033Z,90.38
2023-08-15T06:04:46.977Z,89.30
2023-08-15T06:07:19.242Z,89.44
2023-08-15T06:09:51.500Z,89.87
2023-08-15T06:12:23.172Z,89.82
2023-08-15T06:14:56.191Z,89.33
2023-08-15T06:17:28.176Z,89.94
2023-08-15T06:20:00.139Z,90.02
2023-08-15T06:22:32.254Z,89.61
2023-08-15T06:25:04.182Z,90.07
2023-08-15T06:27:36.176Z,90.47
2023-08-15T06:30:11.764Z,90.61
2023-08-15T06:32:45.210Z,92.53
2023-08-15T06:35:17.167Z,92.72
2023-08-15T06:37:49.051Z,92.17
2023-08-15T06:40:21.123Z,93.88
2023-08-15T06:42:53.027Z,94.66
2023-08-15T06:45:27.123Z,95.40
2023-08-15T06:47:59.092Z,95.95
2023-08-15T06:50:31.025Z,96.50
2023-08-15T06:53:02.906Z,96.64
2023-08-15T06:55:34.906Z,96.84
2023-08-15T06:58:06.821Z,97.89
2023-08-15T07:00:40.243Z,97.47
2023-08-15T07:03:12.589Z,97.98
2023-08-15T07:05:45.112Z,98.24
2023-08-15T07:08:17.210Z,98.53
2023-08-15T07:10:48.939Z,99.77
2023-08-15T07:13:20.793Z,100.00
2023-08-15T07:15:59.030Z,99.35
2023-08-15T07:18:30.993Z,99.74
2023-08-15T07:21:04.293Z,99.89
2023-08-15T07:23:36.196Z,98.65
2023-08-15T07:26:08.056Z,97.86
2023-08-15T07:28:39.947Z,98.55
2023-08-15T07:31:12.931Z,98.30
2023-08-15T07:33:44.891Z,98.86
2023-08-15T07:36:16.762Z,100.00
2023-08-15T07:38:48.669Z,100.00
2023-08-15T07:41:20.576Z,99.93
2023-08-15T07:43:52.538Z,100.00
2023-08-15T07:46:26.166Z,100.00
2023-08-15T07:48:58.395Z,100.00
2023-08-15T07:51:32.727Z,100.00
2023-08-15T07:54:04.598Z,100.00
2023-08-15T07:56:36.440Z,100.00
2023-08-15T07:59:11.089Z,100.00
2023-08-15T08:01:44.375Z,100.00
2023-08-15T08:04:16.293Z,100.00
2023-08-15T08:06:49.670Z,100.00
2023-08-15T08:09:21.370Z,100.00
2023-08-15T08:11:53.636Z,100.00
2023-08-15T08:14:25.336Z,97.99
2023-08-15T08:16:58.420Z,99.84
2023-08-15T08:19:30.269Z,98.60
2023-08-15T08:22:02.123Z,97.52
2023-08-15T08:24:34.106Z,97.45
2023-08-15T08:27:06.203Z,96.38
2023-08-15T08:29:38.197Z,97.56
2023-08-15T08:32:11.549Z,96.49
2023-08-15T08:34:43.448Z,96.09
2023-08-15T08:37:15.391Z,95.77
2023-08-15T08:39:47.269Z,93.89
2023-08-15T08:42:19.400Z,93.32
2023-08-15T08:44:52.135Z,92.50
2023-08-15T08:47:30.281Z,90.21
2023-08-15T08:50:03.992Z,87.99
2023-08-15T08:52:39.948Z,89.20
2023-08-15T08:55:13.630Z,90.15
2023-08-15T08:57:54.281Z,86.87
2023-08-15T09:00:34.939Z,86.65
2023-08-15T09:03:08.258Z,86.64
2023-08-15T09:05:42.425Z,87.15
2023-08-15T09:08:14.344Z,89.19
2023-08-15T09:10:46.391Z,86.26
2023-08-15T09:13:25.363Z,84.75
2023-08-15T09:15:59.346Z,83.87
2023-08-15T09:18:36.990Z,80.79
2023-08-15T09:21:13.880Z,81.37
2023-08-15T09:23:48.466Z,82.52
2023-08-15T09:26:20.380Z,80.27
2023-08-15T09:28:53.328Z,80.30
2023-08-15T09:31:25.320Z,79.72
2023-08-15T09:33:58.462Z,78.81
2023-08-15T09:36:32.730Z,75.19
2023-08-15T09:39:10.009Z,75.28
2023-08-15T09:41:47.982Z,74.88
2023-08-15T09:44:37.684Z,74.84
2023-08-15T09:47:12.296Z,74.23
2023-08-15T09:49:45.862Z,75.88
2023-08-15T09:52:19.223Z,74.20
2023-08-15T09:54:52.216Z,73.74
2023-08-15T09:57:24.183Z,76.14
2023-08-15T09:59:56.406Z,73.20
2023-08-15T10:02:31.461Z,72.96
2023-08-15T10:05:08.214Z,72.37
2023-08-15T10:07:43.039Z,74.23
2023-08-15T10:10:16.062Z,74.87
2023-08-15T10:12:51.546Z,74.34
2023-08-15T10:15:25.205Z,71.92
2023-08-15T10:17:59.267Z,71.54
2023-08-15T10:20:38.541Z,70.46
2023-08-15T10:23:11.825Z,70.84
2023-08-15T10:25:44.874Z,71.45
2023-08-15T10:28:17.987Z,71.41
2023-08-15T10:30:52.918Z,69.34
2023-08-15T10:33:28.206Z,69.26
2023-08-15T10:36:13.186Z,71.63
2023-08-15T10:38:47.000Z,68.35
2023-08-15T10:41:21.448Z,68.54
2023-08-15T10:43:56.825Z,67.18
2023-08-15T10:46:32.371Z,67.28
2023-08-15T10:49:09.795Z,68.27
2023-08-15T10:51:44.279Z,65.47
2023-08-15T10:54:19.054Z,65.43
2023-08-15T10:56:52.056Z,66.39
2023-08-15T10:59:24.332Z,64.78
2023-08-15T11:01:56.879Z,63.00
2023-08-15T11:04:32.112Z,65.22
2023-08-15T11:07:05.360Z,65.30
2023-08-15T11:09:37.376Z,64.29
2023-08-15T11:12:10.555Z,64.30
2023-08-15T11:14:43.195Z,63.08
2023-08-15T11:17:16.505Z,62.63
2023-08-15T11:19:48.467Z,62.41
2023-08-15T11:22:22.820Z,63.78
2023-08-15T11:24:55.780Z,61.97
2023-08-15T11:27:27.647Z,63.95
2023-08-15T11:30:03.527Z,65.22
2023-08-15T11:32:36.615Z,64.04
2023-08-15T11:35:11.449Z,63.48
2023-08-15T11:37:46.595Z,62.14
2023-08-15T11:40:18.589Z,63.13
2023-08-15T11:42:51.381Z,63.17
2023-08-15T11:45:26.053Z,62.97
2023-08-15T11:48:02.459Z,61.85
2023-08-15T11:50:44.305Z,63.06
2023-08-15T11:53:19.804Z,63.05
2023-08-15T11:55:52.884Z,64.37
2023-08-15T11:58:34.884Z,61.56
2023-08-15T12:01:10.040Z,61.09
2023-08-15T12:03:43.045Z,62.59
2023-08-15T12:06:16.893Z,62.94
2023-08-15T12:08:50.792Z,63.87
2023-08-15T12:11:25.867Z,62.89
2023-08-15T12:13:57.582Z,62.41
2023-08-15T12:16:29.470Z,62.41
2023-08-15T12:19:01.399Z,63.76
2023-08-15T12:21:33.240Z,62.84
2023-08-15T12:24:06.401Z,59.94
2023-08-15T12:26:38.308Z,60.75
2023-08-15T12:29:10.193Z,61.41
2023-08-15T12:31:43.104Z,61.10
2023-08-15T12:34:15.221Z,60.54
2023-08-15T12:36:47.285Z,61.48
2023-08-15T12:39:20.511Z,58.93
2023-08-15T12:41:52.734Z,60.81
2023-08-15T12:44:24.470Z,58.28
2023-08-15T12:46:56.441Z,58.49
2023-08-15T12:49:28.508Z,58.39
2023-08-15T12:52:00.522Z,59.20
2023-08-15T12:54:34.104Z,58.13
2023-08-15T12:57:06.578Z,59.42
2023-08-15T12:59:38.510Z,58.93
2023-08-15T13:02:10.553Z,58.59
2023-08-15T13:04:42.552Z,59.04
2023-08-15T13:07:14.515Z,59.09
2023-08-15T13:09:47.749Z,59.75
2023-08-15T13:12:20.367Z,59.92
2023-08-15T13:14:52.550Z,61.20
2023-08-15T13:17:24.726Z,59.21
2023-08-15T13:19:56.479Z,59.98
2023-08-15T13:22:28.407Z,60.97
2023-08-15T13:25:05.013Z,61.55
2023-08-15T13:27:37.068Z,62.12
2023-08-15T13:30:10.869Z,62.16
2023-08-15T13:32:42.772Z,61.86
2023-08-15T13:35:14.568Z,62.24
2023-08-15T13:37:46.574Z,63.58
2023-08-15T13:40:19.953Z,62.52
2023-08-15T13:42:51.838Z,61.35
2023-08-15T13:45:23.765Z,61.59
2023-08-15T13:47:55.788Z,61.14
2023-08-15T13:50:27.643Z,62.62
2023-08-15T13:52:59.542Z,61.94
2023-08-15T13:55:33.412Z,61.53
2023-08-15T13:58:05.601Z,60.67
2023-08-15T14:00:37.398Z,61.01
2023-08-15T14:03:09.199Z,62.44
2023-08-15T14:05:41.078Z,61.77
2023-08-15T14:08:12.991Z,61.34
2023-08-15T14:10:45.957Z,62.32
2023-08-15T14:13:17.914Z,63.03
2023-08-15T14:15:49.963Z,62.31
2023-08-15T14:18:21.903Z,62.40
2023-08-15T14:20:53.790Z,62.85
2023-08-15T14:23:25.697Z,62.22
2023-08-15T14:26:00.741Z,62.51
2023-08-15T14:28:36.740Z,62.85
2023-08-15T14:31:09.278Z,61.74
2023-08-15T14:33:40.928Z,60.67
2023-08-15T14:36:12.827Z,60.59
2023-08-15T14:38:45.906Z,60.80
2023-08-15T14:41:19.887Z,60.57
2023-08-15T14:43:51.724Z,60.96
2023-08-15T14:46:23.602Z,62.20
2023-08-15T14:48:55.559Z,62.08
2023-08-15T14:51:27.473Z,63.00
2023-08-15T14:53:59.365Z,64.75
2023-08-15T14:56:32.610Z,64.69
2023-08-15T14:59:04.297Z,65.45
2023-08-15T15:01:36.307Z,66.20
2023-08-15T15:04:06.690Z,67.01
2023-08-15T15:06:42.303Z,69.42
2023-08-15T15:09:14.231Z,67.72
2023-08-15T15:11:47.402Z,69.36
2023-08-15T15:14:19.329Z,68.92
2023-08-15T15:16:51.381Z,69.48
2023-08-15T15:19:23.507Z,70.56
2023-08-15T15:21:56.688Z,72.17
2023-08-15T15:24:29.034Z,72.81
2023-08-15T15:27:03.471Z,74.69
2023-08-15T15:29:35.155Z,75.26
2023-08-15T15:32:06.236Z,75.61
2023-08-15T15:34:38.388Z,74.98
2023-08-15T15:37:10.253Z,75.16
2023-08-15T15:39:42.021Z,74.97
2023-08-15T15:42:15.170Z,75.30
2023-08-15T15:44:47.048Z,76.65
2023-08-15T15:47:19.022Z,75.39
2023-08-15T15:49:50.982Z,76.46
2023-08-15T15:52:21.133Z,77.11
2023-08-15T15:54:52.970Z,77.00
2023-08-15T15:57:25.976Z,76.67
2023-08-15T15:59:57.938Z,77.07
2023-08-15T16:02:30.912Z,77.97
2023-08-15T16:05:02.825Z,77.82
2023-08-15T16:07:34.756Z,77.48
2023-08-15T16:10:07.251Z,76.58
2023-08-15T16:12:40.505Z,76.96
2023-08-15T16:15:13.778Z,76.94
2023-08-15T16:17:47.123Z,77.97
2023-08-15T16:20:19.247Z,78.01
2023-08-15T16:22:51.203Z,77.80
2023-08-15T16:25:23.966Z,78.23
2023-08-15T16:27:58.236Z,78.08
2023-08-15T16:30:29.954Z,78.93
2023-08-15T16:33:03.702Z,78.58
2023-08-15T16:35:36.059Z,78.64
2023-08-15T16:38:08.029Z,78.35
2023-08-15T16:40:39.709Z,78.67
2023-08-15T16:43:18.909Z,78.12
2023-08-15T16:45:51.094Z,78.54
2023-08-15T16:48:23.110Z,78.38
2023-08-15T16:50:54.978Z,78.65
2023-08-15T16:53:26.841Z,78.92
2023-08-15T16:55:58.896Z,78.95
2023-08-15T16:58:31.915Z,79.46
2023-08-15T17:01:03.806Z,80.17
2023-08-15T17:03:35.784Z,79.26
2023-08-15T17:06:07.774Z,80.08
2023-08-15T17:08:39.648Z,79.51
2023-08-15T17:11:11.621Z,80.12
2023-08-15T17:13:47.103Z,81.33
2023-08-15T17:16:19.389Z,82.34
2023-08-15T17:18:51.451Z,81.59
2023-08-15T17:21:23.366Z,81.24
2023-08-15T17:23:55.223Z,81.62
2023-08-15T17:26:27.594Z,81.07
2023-08-15T17:29:01.463Z,81.65
2023-08-15T17:31:33.406Z,81.54
2023-08-15T17:34:05.350Z,81.12
2023-08-15T17:36:37.277Z,82.13
2023-08-15T17:39:10.540Z,82.23
2023-08-15T17:41:44.196Z,82.68
2023-08-15T17:44:19.665Z,82.39
2023-08-15T17:46:51.820Z,83.29
2023-08-15T17:49:24.006Z,82.54
2023-08-15T17:51:55.807Z,82.94
2023-08-15T17:54:27.662Z,84.14
2023-08-15T17:56:59.557Z,83.21
2023-08-15T17:59:32.623Z,84.13
2023-08-15T18:02:04.689Z,84.23
2023-08-15T18:04:36.609Z,83.72
2023-08-15T18:07:09.939Z,85.04
2023-08-15T18:09:41.922Z,83.74
2023-08-15T18:12:13.854Z,85.16
2023-08-15T18:14:47.171Z,85.22
2023-08-15T18:17:19.104Z,84.70
2023-08-15T18:19:51.032Z,84.29
2023-08-15T18:22:23.780Z,84.79
2023-08-15T18:24:55.551Z,84.45
2023-08-15T18:27:27.466Z,83.67
2023-08-15T18:30:02.124Z,84.54
2023-08-15T18:32:34.385Z,85.04
2023-08-15T18:35:06.504Z,85.03
2023-08-15T18:37:39.053Z,86.19
2023-08-15T18:40:13.341Z,86.60
2023-08-15T18:42:45.395Z,85.73
2023-08-15T18:45:19.042Z,86.48
2023-08-15T18:47:51.108Z,87.07
2023-08-15T18:50:23.050Z,87.30
2023-08-15T18:52:55.020Z,87.69
2023-08-15T18:55:26.979Z,87.56
2023-08-15T18:57:58.943Z,88.41
2023-08-15T19:00:32.073Z,89.39
2023-08-15T19:03:04.229Z,87.97
2023-08-15T19:05:36.320Z,87.54
2023-08-15T19:08:08.296Z,87.70
2023-08-15T19:10:40.184Z,87.98
2023-08-15T19:13:12.347Z,86.86
2023-08-15T19:15:45.700Z,87.11
2023-08-15T19:18:17.817Z,88.02
2023-08-15T19:20:49.553Z,87.96
2023-08-15T19:23:21.613Z,88.05
2023-08-15T19:25:53.510Z,88.05
2023-08-15T19:28:26.852Z,87.50
2023-08-15T19:31:03.776Z,87.57
2023-08-15T19:33:37.103Z,87.74
2023-08-15T19:36:09.920Z,87.53
2023-08-15T19:38:41.961Z,86.72
2023-08-15T19:41:14.582Z,86.48
2023-08-15T19:43:47.073Z,86.74
2023-08-15T19:46:20.050Z,86.01
2023-08-15T19:48:52.066Z,86.31
2023-08-15T19:51:24.356Z,85.29
2023-08-15T19:53:56.702Z,85.44
2023-08-15T19:56:28.444Z,85.42
2023-08-15T19:59:00.408Z,85.08
2023-08-15T20:01:33.774Z,85.26
2023-08-15T20:04:05.791Z,84.73
2023-08-15T20:06:37.719Z,85.13
2023-08-15T20:09:10.271Z,84.19
2023-08-15T20:11:42.193Z,84.39
2023-08-15T20:14:14.122Z,84.40
2023-08-15T20:16:47.620Z,85.29
2023-08-15T20:19:20.067Z,85.04
2023-08-15T20:21:52.764Z,85.23
2023-08-15T20:24:25.048Z,85.58
2023-08-15T20:26:57.176Z,85.57
2023-08-15T20:29:29.217Z,85.38
2023-08-15T20:32:02.457Z,86.19
2023-08-15T20:34:34.907Z,85.05
2023-08-15T20:37:07.682Z,84.76
2023-08-15T20:39:39.719Z,85.18
2023-08-15T20:42:13.397Z,84.72
2023-08-15T20:44:45.620Z,84.76
2023-08-15T20:47:18.630Z,85.16
2023-08-15T20:49:51.069Z,85.01
2023-08-15T20:52:23.114Z,85.22
2023-08-15T20:54:54.929Z,85.07
2023-08-15T20:57:26.996Z,84.58
2023-08-15T20:59:59.484Z,85.01
2023-08-15T21:02:32.871Z,84.70
2023-08-15T21:05:06.383Z,84.35
2023-08-15T21:07:38.244Z,84.37
2023-08-15T21:10:12.670Z,84.36
2023-08-15T21:12:45.188Z,84.03
2023-08-15T21:15:17.091Z,83.85
2023-08-15T21:17:50.303Z,83.66
2023-08-15T21:20:22.299Z,84.00
2023-08-15T21:22:54.260Z,83.45
2023-08-15T21:25:26.097Z,83.42
2023-08-15T21:27:58.313Z,83.31
2023-08-15T21:30:30.429Z,83.10
2023-08-15T21:33:03.707Z,82.96
2023-08-15T21:35:35.786Z,82.93
2023-08-15T21:38:07.706Z,83.47
2023-08-15T21:40:39.640Z,83.47
2023-08-15T21:43:11.593Z,82.98
2023-08-15T21:45:43.805Z,83.10
2023-08-15T21:48:17.928Z,84.21
2023-08-15T21:50:50.159Z,84.22
2023-08-15T21:53:22.150Z,84.04
2023-08-15T21:55:54.351Z,83.86
2023-08-15T21:58:26.029Z,84.37
2023-08-15T22:00:58.176Z,84.33
2023-08-15T22:03:32.046Z,84.92
2023-08-15T22:06:04.023Z,84.38
2023-08-15T22:08:35.903Z,84.84
2023-08-15T22:11:07.780Z,83.92
2023-08-15T22:13:39.741Z,85.41
2023-08-15T22:16:11.672Z,85.29
2023-08-15T22:18:44.928Z,85.69
2023-08-15T22:21:16.974Z,86.21
2023-08-15T22:23:50.277Z,85.59
2023-08-15T22:26:23.183Z,84.79
2023-08-15T22:28:55.021Z,85.09
2023-08-15T22:31:27.002Z,84.66
2023-08-15T22:34:00.126Z,84.33
2023-08-15T22:36:32.036Z,84.23
2023-08-15T22:39:05.409Z,83.70
2023-08-15T22:41:37.313Z,83.88
2023-08-15T22:44:10.382Z,83.10
2023-08-15T22:46:42.126Z,84.32
2023-08-15T22:49:15.325Z,85.08
2023-08-15T22:51:47.480Z,86.30
2023-08-15T22:54:19.545Z,86.42
2023-08-15T22:56:51.480Z,85.27
2023-08-15T22:59:23.335Z,84.96
2023-08-15T23:01:55.230Z,84.68
2023-08-15T23:04:28.402Z,86.15
2023-08-15T23:07:00.059Z,85.84
2023-08-15T23:09:31.999Z,86.36
2023-08-15T23:12:04.190Z,85.79
2023-08-15T23:14:35.894Z,85.14
2023-08-15T23:17:08.599Z,85.28
2023-08-15T23:19:41.597Z,84.29
2023-08-15T23:22:13.534Z,84.63
2023-08-15T23:24:45.604Z,84.24
2023-08-15T23:27:17.634Z,84.18
2023-08-15T23:29:49.572Z,84.37
2023-08-15T23:32:21.623Z,83.93
2023-08-15T23:34:54.930Z,84.10
2023-08-15T23:37:27.085Z,84.06
2023-08-15T23:39:59.028Z,84.43
2023-08-15T23:42:30.927Z,83.50
2023-08-15T23:45:04.123Z,83.67
2023-08-15T23:47:36.050Z,84.04
2023-08-15T23:50:10.427Z,84.36
2023-08-15T23:52:42.079Z,84.34
2023-08-15T23:55:13.984Z,83.97
2023-08-15T23:57:45.920Z,83.25
